createdAt,value
2022-11-10T00:02:49.312Z,39.35
2022-11-10T00:06:10.843Z,35.72
2022-11-10T00:09:32.774Z,35.83
2022-11-10T00:12:54.022Z,36.90
2022-11-10T00:16:34.019Z,35.80
2022-11-10T00:19:55.361Z,34.20
2022-11-10T00:23:16.218Z,36.65
2022-11-10T00:26:37.202Z,34.92
2022-11-10T00:29:57.682Z,34.80
2022-11-10T00:33:19.116Z,37.08
2022-11-10T00:36:40.714Z,36.65
2022-11-10T00:40:01.818Z,35.30
2022-11-10T00:43:26.494Z,34.78
2022-11-10T00:46:47.916Z,33.97
2022-11-10T00:50:09.346Z,37.65
2022-11-10T00:53:31.013Z,33.50
2022-11-10T00:56:53.006Z,37.03
2022-11-10T01:00:14.292Z,33.67
2022-11-10T01:03:35.373Z,36.90
2022-11-10T01:06:56.293Z,35.08
2022-11-10T01:10:17.626Z,36.38
2022-11-10T01:13:40.585Z,35.75
2022-11-10T01:17:02.128Z,34.55
2022-11-10T01:20:23.746Z,37.50
2022-11-10T01:23:45.414Z,34.78
2022-11-10T01:27:06.876Z,37.60
2022-11-10T01:30:28.443Z,33.83
2022-11-10T01:33:49.926Z,37.80
2022-11-10T01:37:12.800Z,32.88
2022-11-10T01:40:34.073Z,37.92
2022-11-10T01:43:55.036Z,35.67
2022-11-10T01:47:16.173Z,33.28
2022-11-10T01:50:40.374Z,36.75
2022-11-10T01:54:04.745Z,26.47
2022-11-10T01:57:26.039Z,35.25
2022-11-10T02:00:47.244Z,33.10
2022-11-10T02:04:10.408Z,33.78
2022-11-10T02:07:32.249Z,33.35
2022-11-10T02:10:53.662Z,33.67
2022-11-10T02:14:15.734Z,32.25
2022-11-10T02:17:37.409Z,31.17
2022-11-10T02:20:58.358Z,31.65
2022-11-10T02:24:19.595Z,31.33
2022-11-10T02:27:40.487Z,30.63
2022-11-10T02:31:01.717Z,28.70
2022-11-10T02:34:23.274Z,29.25
2022-11-10T02:37:44.733Z,29.70
2022-11-10T02:41:05.893Z,29.27
2022-11-10T02:44:27.145Z,30.02
2022-11-10T02:47:48.314Z,27.58
2022-11-10T02:51:10.765Z,30.58
2022-11-10T02:54:32.193Z,31.65
2022-11-10T02:57:53.035Z,30.67
2022-11-10T03:01:14.870Z,30.60
2022-11-10T03:04:35.545Z,28.42
2022-11-10T03:08:02.136Z,29.27
2022-11-10T03:11:27.986Z,26.48
2022-11-10T03:14:52.150Z,27.60
2022-11-10T03:18:13.061Z,28.08
2022-11-10T03:21:34.674Z,27.83
2022-11-10T03:24:55.911Z,28.13
2022-11-10T03:28:17.473Z,30.15
2022-11-10T03:31:39.107Z,28.67
2022-11-10T03:35:00.809Z,27.92
2022-11-10T03:38:21.778Z,30.02
2022-11-10T03:41:43.215Z,27.23
2022-11-10T03:45:06.617Z,28.45
2022-11-10T03:48:28.129Z,27.15
2022-11-10T03:51:49.669Z,24.98
2022-11-10T03:55:17.387Z,26.35
2022-11-10T03:58:39.099Z,26.40
2022-11-10T04:02:02.442Z,26.50
2022-11-10T04:05:42.333Z,29.30
2022-11-10T04:09:04.619Z,26.90
2022-11-10T04:12:45.078Z,24.40
2022-11-10T04:16:06.451Z,25.40
2022-11-10T04:19:27.857Z,27.08
2022-11-10T04:23:07.432Z,27.60
2022-11-10T04:26:29.346Z,27.05
2022-11-10T04:29:51.007Z,26.25
2022-11-10T04:33:12.830Z,27.10
2022-11-10T04:36:37.194Z,28.05
2022-11-10T04:40:00.166Z,28.88
2022-11-10T04:43:21.637Z,30.63
2022-11-10T04:46:44.389Z,36.42
2022-11-10T04:50:05.268Z,24.65
2022-11-10T04:53:26.784Z,24.45
2022-11-10T04:56:47.886Z,28.75
2022-11-10T05:00:10.638Z,27.85
2022-11-10T05:03:32.695Z,27.40
2022-11-10T05:06:55.080Z,25.88
2022-11-10T05:10:20.623Z,24.50
2022-11-10T05:13:41.988Z,33.17
2022-11-10T05:17:03.528Z,77.78
2022-11-10T05:20:27.262Z,49.25
2022-11-10T05:23:48.260Z,65.53
2022-11-10T05:27:09.168Z,28.65
2022-11-10T05:30:30.499Z,27.20
2022-11-10T05:33:51.633Z,22.92
2022-11-10T05:37:14.134Z,23.15
2022-11-10T05:40:35.513Z,23.58
2022-11-10T05:43:56.404Z,23.17
2022-11-10T05:47:17.237Z,22.33
2022-11-10T05:50:38.478Z,23.20
2022-11-10T05:53:59.872Z,22.20
2022-11-10T05:57:21.459Z,25.83
2022-11-10T06:00:42.694Z,23.40
2022-11-10T06:04:03.532Z,21.83
2022-11-10T06:07:24.436Z,22.08
2022-11-10T06:10:45.394Z,20.77
2022-11-10T06:14:09.254Z,22.58
2022-11-10T06:17:30.661Z,20.97
2022-11-10T06:20:52.913Z,20.10
2022-11-10T06:24:13.803Z,19.77
2022-11-10T06:27:35.289Z,20.55
2022-11-10T06:30:59.195Z,19.60
2022-11-10T06:34:22.200Z,19.58
2022-11-10T06:37:43.894Z,20.13
2022-11-10T06:41:05.540Z,23.83
2022-11-10T06:44:27.501Z,25.38
2022-11-10T06:47:49.695Z,20.00
2022-11-10T06:51:10.834Z,19.45
2022-11-10T06:54:32.253Z,18.77
2022-11-10T06:57:53.703Z,18.85
2022-11-10T07:01:17.635Z,17.30
2022-11-10T07:04:45.582Z,17.48
2022-11-10T07:08:16.075Z,16.63
2022-11-10T07:11:37.093Z,16.48
2022-11-10T07:14:58.107Z,16.63
2022-11-10T07:18:19.100Z,16.05
2022-11-10T07:21:40.387Z,15.45
2022-11-10T07:25:03.128Z,16.02
2022-11-10T07:28:28.349Z,16.00
2022-11-10T07:31:50.385Z,16.00
2022-11-10T07:35:11.699Z,15.93
2022-11-10T07:38:32.995Z,16.88
2022-11-10T07:41:54.748Z,16.10
2022-11-10T07:45:15.963Z,15.73
2022-11-10T07:48:40.219Z,15.10
2022-11-10T07:52:02.245Z,14.60
2022-11-10T07:55:23.839Z,16.02
2022-11-10T07:58:45.186Z,15.38
2022-11-10T08:02:06.879Z,15.27
2022-11-10T08:05:28.512Z,14.73
2022-11-10T08:08:49.807Z,14.25
2022-11-10T08:12:12.671Z,14.70
2022-11-10T08:15:34.619Z,14.45
2022-11-10T08:18:55.517Z,14.93
2022-11-10T08:22:16.681Z,14.38
2022-11-10T08:25:38.320Z,14.00
2022-11-10T08:28:59.655Z,12.88
2022-11-10T08:32:22.314Z,13.27
2022-11-10T08:35:46.289Z,14.32
2022-11-10T08:39:07.844Z,13.18
2022-11-10T08:42:28.971Z,12.70
2022-11-10T08:45:49.897Z,12.40
2022-11-10T08:49:11.199Z,11.77
2022-11-10T08:52:33.067Z,12.10
2022-11-10T08:55:54.469Z,10.20
2022-11-10T08:59:26.622Z,10.68
2022-11-10T09:02:47.785Z,11.40
2022-11-10T09:06:09.000Z,11.15
2022-11-10T09:09:30.561Z,10.35
2022-11-10T09:12:52.134Z,9.57
2022-11-10T09:16:13.918Z,9.88
2022-11-10T09:19:35.928Z,10.20
2022-11-10T09:22:57.487Z,10.77
2022-11-10T09:26:18.557Z,9.90
2022-11-10T09:29:41.305Z,9.65
2022-11-10T09:33:02.061Z,9.43
2022-11-10T09:36:23.876Z,9.43
2022-11-10T09:39:45.954Z,8.68
2022-11-10T09:43:16.047Z,7.90
2022-11-10T09:46:40.858Z,8.82
2022-11-10T09:50:04.093Z,8.60
2022-11-10T09:53:51.989Z,7.88
2022-11-10T09:57:19.185Z,8.35
2022-11-10T10:00:42.820Z,8.52
2022-11-10T10:04:03.837Z,7.68
2022-11-10T10:07:32.148Z,7.18
2022-11-10T10:11:21.170Z,7.32
2022-11-10T10:14:52.707Z,7.00
2022-11-10T10:18:31.769Z,6.68
2022-11-10T10:22:26.360Z,5.57
2022-11-10T10:25:48.750Z,5.10
2022-11-10T10:29:23.790Z,5.85
2022-11-10T10:32:45.175Z,6.03
2022-11-10T10:36:11.208Z,6.45
2022-11-10T10:39:38.090Z,5.63
2022-11-10T10:43:00.516Z,5.40
2022-11-10T10:46:34.397Z,5.55
2022-11-10T10:50:17.283Z,4.93
2022-11-10T10:53:48.829Z,5.13
2022-11-10T10:57:22.892Z,5.57
2022-11-10T11:00:46.045Z,5.40
2022-11-10T11:04:36.153Z,4.55
2022-11-10T11:08:02.289Z,4.28
2022-11-10T11:11:28.183Z,4.50
2022-11-10T11:14:49.983Z,4.13
2022-11-10T11:18:17.849Z,3.55
2022-11-10T11:21:47.561Z,4.00
2022-11-10T11:25:25.686Z,4.18
2022-11-10T11:29:45.470Z,3.83
2022-11-10T11:33:20.062Z,5.45
2022-11-10T11:37:05.357Z,5.20
2022-11-10T11:41:08.139Z,6.72
2022-11-10T11:45:03.266Z,15.77
2022-11-10T11:48:52.864Z,5.78
2022-11-10T11:52:33.372Z,3.60
2022-11-10T11:56:07.212Z,4.25
2022-11-10T11:59:31.450Z,3.28
2022-11-10T12:02:58.482Z,5.32
2022-11-10T12:06:35.963Z,5.20
2022-11-10T12:10:40.547Z,3.65
2022-11-10T12:14:49.946Z,3.40
2022-11-10T12:18:31.869Z,5.85
2022-11-10T12:21:59.099Z,4.50
2022-11-10T12:25:30.164Z,4.68
2022-11-10T12:29:04.185Z,3.53
2022-11-10T12:32:36.425Z,3.63
2022-11-10T12:35:58.879Z,3.90
2022-11-10T12:39:24.253Z,3.53
2022-11-10T12:42:48.266Z,3.50
2022-11-10T12:46:12.446Z,2.72
2022-11-10T12:49:36.772Z,3.13
2022-11-10T12:53:03.307Z,3.88
2022-11-10T12:56:35.232Z,3.70
2022-11-10T13:00:06.298Z,3.42
2022-11-10T13:03:34.501Z,4.55
2022-11-10T13:06:58.605Z,4.32
2022-11-10T13:10:19.804Z,5.00
2022-11-10T13:13:46.927Z,4.20
2022-11-10T13:17:09.506Z,4.55
2022-11-10T13:20:39.695Z,5.15
2022-11-10T13:24:03.517Z,4.32
2022-11-10T13:27:37.125Z,4.78
2022-11-10T13:30:58.309Z,5.32
2022-11-10T13:34:20.048Z,3.95
2022-11-10T13:37:42.710Z,3.85
2022-11-10T13:41:26.004Z,4.72
2022-11-10T13:44:47.769Z,4.53
2022-11-10T13:48:11.721Z,4.07
2022-11-10T13:51:39.589Z,3.90
2022-11-10T13:55:35.928Z,4.32
2022-11-10T13:58:58.171Z,4.70
2022-11-10T14:02:34.185Z,5.05
2022-11-10T14:05:58.287Z,5.85
2022-11-10T14:09:39.998Z,5.28
2022-11-10T14:13:11.759Z,6.50
2022-11-10T14:16:34.055Z,6.95
2022-11-10T14:19:55.509Z,7.13
2022-11-10T14:23:26.226Z,6.57
2022-11-10T14:26:55.909Z,6.40
2022-11-10T14:30:24.967Z,5.18
2022-11-10T14:33:57.176Z,5.22
2022-11-10T14:37:24.457Z,5.47
2022-11-10T14:40:45.494Z,7.47
2022-11-10T14:44:09.190Z,12.13
2022-11-10T14:47:31.435Z,13.18
2022-11-10T14:50:53.384Z,5.10
2022-11-10T14:54:23.538Z,8.52
2022-11-10T14:57:52.225Z,9.40
2022-11-10T15:01:29.318Z,9.07
2022-11-10T15:04:51.886Z,8.85
2022-11-10T15:08:16.393Z,11.40
2022-11-10T15:11:53.737Z,11.93
2022-11-10T15:15:23.778Z,13.02
2022-11-10T15:18:45.918Z,8.82
2022-11-10T15:22:07.870Z,11.73
2022-11-10T15:25:40.531Z,9.90
2022-11-10T15:29:01.776Z,13.07
2022-11-10T15:32:33.931Z,9.20
2022-11-10T15:35:57.070Z,9.73
2022-11-10T15:39:23.539Z,11.27
2022-11-10T15:42:44.230Z,12.18
2022-11-10T15:46:18.160Z,10.73
2022-11-10T15:49:40.645Z,9.02
2022-11-10T15:53:14.567Z,9.05
2022-11-10T15:56:36.719Z,9.02
2022-11-10T15:59:57.788Z,10.32
2022-11-10T16:03:20.842Z,14.48
2022-11-10T16:06:44.078Z,19.83
2022-11-10T16:10:06.831Z,20.10
2022-11-10T16:13:30.376Z,19.98
2022-11-10T16:16:51.513Z,18.92
2022-11-10T16:20:15.197Z,15.43
2022-11-10T16:23:36.370Z,8.18
2022-11-10T16:26:57.467Z,10.10
2022-11-10T16:30:23.237Z,9.77
2022-11-10T16:33:45.455Z,12.02
2022-11-10T16:37:06.865Z,16.40
2022-11-10T16:40:28.148Z,25.13
2022-11-10T16:43:49.453Z,53.58
2022-11-10T16:47:17.030Z,54.78
2022-11-10T16:50:38.881Z,29.23
2022-11-10T16:54:02.322Z,17.48
2022-11-10T16:57:23.631Z,12.23
2022-11-10T17:00:45.360Z,11.65
2022-11-10T17:04:11.543Z,10.35
2022-11-10T17:07:34.570Z,10.88
2022-11-10T17:10:58.402Z,11.13
2022-11-10T17:14:20.719Z,10.17
2022-11-10T17:17:44.569Z,13.43
2022-11-10T17:21:08.100Z,9.85
2022-11-10T17:24:29.413Z,12.90
2022-11-10T17:27:50.952Z,10.80
2022-11-10T17:31:14.049Z,10.32
2022-11-10T17:34:35.186Z,11.23
2022-11-10T17:37:59.826Z,12.43
2022-11-10T17:41:22.493Z,11.73
2022-11-10T17:44:47.961Z,10.30
2022-11-10T17:48:08.959Z,10.30
2022-11-10T17:51:31.242Z,9.52
2022-11-10T17:54:58.662Z,9.75
2022-11-10T17:58:21.032Z,15.23
2022-11-10T18:01:42.170Z,12.05
2022-11-10T18:05:07.115Z,11.57
2022-11-10T18:08:28.012Z,11.52
2022-11-10T18:11:49.355Z,9.75
2022-11-10T18:15:17.476Z,10.23
2022-11-10T18:18:38.850Z,12.35
2022-11-10T18:21:59.881Z,14.73
2022-11-10T18:25:21.038Z,14.63
2022-11-10T18:28:43.357Z,13.85
2022-11-10T18:32:05.063Z,16.35
2022-11-10T18:35:26.237Z,15.63
2022-11-10T18:38:47.790Z,17.50
2022-11-10T18:42:09.577Z,18.48
2022-11-10T18:45:30.649Z,17.92
2022-11-10T18:48:51.706Z,17.98
2022-11-10T18:52:12.880Z,17.33
2022-11-10T18:55:33.725Z,17.20
2022-11-10T18:58:56.925Z,16.42
2022-11-10T19:02:18.207Z,18.15
2022-11-10T19:05:42.784Z,16.83
2022-11-10T19:12:26.844Z,19.15
2022-11-10T19:15:51.490Z,19.48
2022-11-10T19:19:12.615Z,19.23
2022-11-10T19:22:33.816Z,18.05
2022-11-10T19:26:10.399Z,22.27
2022-11-10T19:29:31.432Z,21.30
2022-11-10T19:32:52.462Z,19.80
2022-11-10T19:36:18.869Z,17.55
2022-11-10T19:39:40.140Z,18.60
2022-11-10T19:43:01.523Z,24.52
2022-11-10T19:46:27.991Z,25.50
2022-11-10T19:49:49.139Z,26.23
2022-11-10T19:53:10.916Z,24.40
2022-11-10T19:56:34.614Z,25.35
2022-11-10T20:03:17.946Z,23.27
2022-11-10T20:06:39.326Z,24.27
2022-11-10T20:10:01.016Z,25.65
2022-11-10T20:13:22.558Z,24.48
2022-11-10T20:16:44.018Z,25.27
2022-11-10T20:20:06.473Z,23.73
2022-11-10T20:23:27.838Z,24.02
2022-11-10T20:26:50.631Z,23.65
2022-11-10T20:30:11.916Z,22.27
2022-11-10T20:33:33.465Z,18.80
2022-11-10T20:36:55.697Z,17.92
2022-11-10T20:40:42.762Z,19.55
2022-11-10T20:43:58.643Z,21.48
2022-11-10T20:47:19.692Z,17.98
2022-11-10T20:50:41.270Z,19.52
2022-11-10T20:54:02.634Z,20.63
2022-11-10T20:57:24.889Z,19.83
2022-11-10T21:00:45.799Z,20.17
2022-11-10T21:04:07.212Z,19.23
2022-11-10T21:07:29.143Z,23.95
2022-11-10T21:10:58.160Z,24.50
2022-11-10T21:14:19.414Z,22.90
2022-11-10T21:17:44.056Z,20.95
2022-11-10T21:21:05.679Z,22.05
2022-11-10T21:24:28.285Z,22.67
2022-11-10T21:27:50.215Z,20.35
2022-11-10T21:31:11.993Z,20.65
2022-11-10T21:34:33.362Z,21.95
2022-11-10T21:37:54.790Z,21.98
2022-11-10T21:41:16.159Z,23.00
2022-11-10T21:44:38.529Z,22.27
2022-11-10T21:48:02.914Z,19.63
2022-11-10T21:51:23.814Z,13.75
2022-11-10T21:54:45.096Z,19.05
2022-11-10T21:58:06.399Z,19.13
2022-11-10T22:01:27.678Z,21.55
2022-11-10T22:04:49.618Z,19.48
2022-11-10T22:08:11.254Z,23.38
2022-11-10T22:11:51.353Z,22.77
2022-11-10T22:15:33.965Z,22.55
2022-11-10T22:18:55.188Z,23.83
2022-11-10T22:22:16.547Z,24.92
2022-11-10T22:25:37.355Z,19.42
2022-11-10T22:28:58.426Z,19.80
2022-11-10T22:32:19.766Z,20.15
2022-11-10T22:35:43.901Z,17.40
2022-11-10T22:39:05.929Z,18.95
2022-11-10T22:42:59.622Z,18.27
2022-11-10T22:46:20.482Z,18.33
2022-11-10T22:49:41.582Z,17.85
2022-11-10T22:53:02.957Z,18.02
2022-11-10T22:56:23.757Z,22.40
2022-11-10T22:59:45.667Z,23.30
2022-11-10T23:03:07.690Z,21.50
2022-11-10T23:06:30.204Z,16.40
2022-11-10T23:09:51.847Z,18.95
2022-11-10T23:13:15.294Z,16.70
2022-11-10T23:16:36.394Z,15.88
2022-11-10T23:19:57.980Z,17.30
2022-11-10T23:23:19.140Z,17.27
2022-11-10T23:26:41.050Z,17.55
2022-11-10T23:30:02.859Z,18.65
2022-11-10T23:33:28.708Z,18.70
2022-11-10T23:36:52.061Z,16.08
2022-11-10T23:40:13.740Z,16.35
2022-11-10T23:43:34.873Z,15.43
2022-11-10T23:46:55.798Z,16.33
2022-11-10T23:50:17.161Z,17.10
2022-11-10T23:53:38.392Z,18.67
2022-11-10T23:56:59.872Z,19.50
